Time;durP1;ratioP1;P1;durP2;ratioP2;P2;SDS_P1;SDS_P2;PMS_P1;PMS_P2;Temp;Humidity;BMP_temperature;BMP_pressure;BME280_temperature;BME280_humidity;BME280_pressure;Samples;Min_cycle;Max_cycle;Signal;HPM_P1;HPM_P2
2021/12/20 00:01:48;;;;;;;6.63;1.58;;;7.30;99.90;;;;;;5093421;28;20047;-44
2021/12/20 00:04:14;;;;;;;9.85;1.70;;;7.30;99.90;;;;;;5093315;28;20024;-44
2021/12/20 00:06:39;;;;;;;16.40;2.63;;;7.30;99.90;;;;;;5092954;28;20030;-43
2021/12/20 00:09:05;;;;;;;7.00;1.95;;;7.30;99.90;;;;;;5091066;28;20024;-43
2021/12/20 00:11:31;;;;;;;17.15;2.42;;;7.30;99.90;;;;;;5093300;28;20099;-43
2021/12/20 00:13:56;;;;;;;9.63;1.65;;;7.30;99.90;;;;;;5092556;28;20020;-43
2021/12/20 00:16:22;;;;;;;18.85;2.13;;;7.20;99.90;;;;;;5093239;28;20028;-45
2021/12/20 00:18:48;;;;;;;15.73;2.30;;;7.20;99.90;;;;;;5093256;28;20020;-43
2021/12/20 00:21:13;;;;;;;14.57;2.55;;;7.20;99.90;;;;;;5092552;28;20481;-43
2021/12/20 00:23:39;;;;;;;17.33;2.55;;;7.10;99.90;;;;;;5093268;28;20032;-44
2021/12/20 00:26:04;;;;;;;14.43;2.08;;;7.10;99.90;;;;;;5093017;28;20494;-43
2021/12/20 00:28:30;;;;;;;11.48;1.67;;;7.10;99.90;;;;;;5092620;28;20421;-43
2021/12/20 00:30:56;;;;;;;15.45;2.22;;;7.10;99.90;;;;;;5092978;28;20107;-45
2021/12/20 00:33:22;;;;;;;12.13;2.70;;;7.10;99.90;;;;;;5079539;28;20020;-43
2021/12/20 00:35:49;;;;;;;10.85;1.40;;;7.00;99.90;;;;;;5085505;28;20127;-43
2021/12/20 00:40:59;;;;;;;12.55;2.38;;;7.00;99.90;;;;;;5092861;28;20069;-43
2021/12/20 00:43:25;;;;;;;14.23;1.90;;;7.00;99.90;;;;;;5092507;28;20024;-43
2021/12/20 00:45:51;;;;;;;14.52;2.08;;;7.00;99.90;;;;;;5092844;28;20024;-43
2021/12/20 00:48:17;;;;;;;14.13;1.75;;;6.90;99.90;;;;;;5092409;28;20089;-43
2021/12/20 00:50:44;;;;;;;8.93;1.50;;;6.90;99.90;;;;;;5092889;28;20016;-44
2021/12/20 00:53:11;;;;;;;14.10;2.25;;;6.90;99.90;;;;;;5092790;28;20070;-43
2021/12/20 00:55:37;;;;;;;9.05;1.73;;;6.90;99.90;;;;;;5092276;28;20039;-43
2021/12/20 00:58:03;;;;;;;6.13;1.45;;;6.80;99.90;;;;;;5092708;28;20032;-44
2021/12/20 01:00:33;;;;;;;13.48;2.05;;;6.80;99.90;;;;;;5092338;28;20047;-44
2021/12/20 01:03:00;;;;;;;5.57;1.38;;;6.80;99.90;;;;;;5081976;28;20032;-43
2021/12/20 01:05:27;;;;;;;14.30;1.60;;;6.80;99.90;;;;;;5072612;28;20017;-43
2021/12/20 01:07:56;;;;;;;4.90;1.65;;;6.80;99.90;;;;;;5076293;28;20021;-43
2021/12/20 01:10:22;;;;;;;12.93;2.20;;;6.80;99.90;;;;;;5075749;28;20028;-43
2021/12/20 01:12:50;;;;;;;18.05;2.42;;;6.70;99.90;;;;;;5076414;28;20028;-43
2021/12/20 01:15:22;;;;;;;15.02;1.98;;;6.70;99.90;;;;;;5076300;28;20107;-43
2021/12/20 01:17:49;;;;;;;11.57;2.08;;;6.70;99.90;;;;;;5075738;28;20033;-43
2021/12/20 01:20:15;;;;;;;8.93;1.98;;;6.70;99.90;;;;;;5076112;28;20043;-43
2021/12/20 01:22:42;;;;;;;18.70;1.77;;;6.70;99.90;;;;;;5085310;28;20047;-44
2021/12/20 01:25:08;;;;;;;14.25;1.83;;;6.60;99.90;;;;;;5095212;28;20021;-43
2021/12/20 01:27:33;;;;;;;13.75;2.03;;;6.60;99.90;;;;;;5096325;28;20368;-43
2021/12/20 01:29:59;;;;;;;6.90;1.50;;;6.50;99.90;;;;;;5096126;28;20024;-43
2021/12/20 01:32:25;;;;;;;17.23;2.88;;;6.50;99.90;;;;;;5095750;28;20020;-43
2021/12/20 01:34:50;;;;;;;12.55;1.45;;;6.40;99.90;;;;;;5096188;28;20113;-43
2021/12/20 01:37:16;;;;;;;10.77;1.40;;;6.30;99.90;;;;;;5095834;28;20032;-43
2021/12/20 01:39:42;;;;;;;7.05;1.10;;;6.30;99.90;;;;;;5095668;28;20585;-43
2021/12/20 01:42:08;;;;;;;10.98;2.55;;;6.30;99.90;;;;;;5088419;28;20071;-43
2021/12/20 01:44:36;;;;;;;9.27;1.63;;;6.20;99.90;;;;;;5075342;28;20020;-43
2021/12/20 01:47:03;;;;;;;8.32;1.58;;;6.20;99.90;;;;;;5075641;28;20031;-43
2021/12/20 01:49:31;;;;;;;9.80;1.95;;;6.10;99.90;;;;;;5075686;28;20100;-45
2021/12/20 01:54:23;;;;;;;5.28;1.38;;;6.10;99.90;;;;;;5075573;28;20028;-43
2021/12/20 01:56:48;;;;;;;9.68;1.88;;;6.10;99.90;;;;;;5075478;28;20047;-43
2021/12/20 01:59:14;;;;;;;8.93;1.63;;;6.10;99.90;;;;;;5074926;28;20029;-43
2021/12/20 02:01:41;;;;;;;12.27;1.30;;;6.00;99.90;;;;;;5075149;28;20052;-43
2021/12/20 02:04:09;;;;;;;9.20;1.35;;;6.00;99.90;;;;;;5075279;28;20033;-43
2021/12/20 02:06:38;;;;;;;11.20;2.58;;;6.00;99.90;;;;;;5074805;28;20021;-43
2021/12/20 02:09:12;;;;;;;8.25;1.33;;;6.00;99.90;;;;;;5075209;28;20027;-43
2021/12/20 02:11:39;;;;;;;5.50;1.30;;;6.00;99.90;;;;;;5077984;28;21762;-43
2021/12/20 02:14:07;;;;;;;7.60;1.60;;;5.90;99.90;;;;;;5094928;28;20047;-43
2021/12/20 02:16:34;;;;;;;15.52;2.03;;;5.90;99.90;;;;;;5095468;28;20106;-44
2021/12/20 02:19:09;;;;;;;8.45;1.95;;;5.80;99.90;;;;;;5094069;28;20031;-43
2021/12/20 02:21:35;;;;;;;14.70;1.80;;;5.80;99.90;;;;;;5094911;28;20070;-43
2021/12/20 02:24:02;;;;;;;9.95;1.58;;;5.80;99.90;;;;;;5095219;28;20482;-44
2021/12/20 02:26:27;;;;;;;10.13;1.77;;;5.80;99.90;;;;;;5095287;28;20099;-44
2021/12/20 02:28:55;;;;;;;10.10;2.17;;;5.80;99.90;;;;;;5094677;28;20095;-43
2021/12/20 02:39:22;;;;;;;7.85;1.90;;;5.60;99.90;;;;;;5094955;28;20101;-43
2021/12/20 02:41:48;;;;;;;14.05;1.77;;;5.60;99.90;;;;;;5094357;28;20459;-43
2021/12/20 02:44:19;;;;;;;14.68;2.67;;;5.60;99.90;;;;;;5094829;28;20354;-43
2021/12/20 02:49:16;;;;;;;9.80;1.58;;;5.50;99.90;;;;;;5094195;28;20036;-43
2021/12/20 02:51:42;;;;;;;15.45;1.88;;;5.50;99.90;;;;;;5094787;28;20471;-44
2021/12/20 02:54:10;;;;;;;4.50;1.25;;;5.50;99.90;;;;;;5094432;28;20028;-43
2021/12/20 02:56:36;;;;;;;25.10;1.83;;;5.50;99.90;;;;;;5093911;28;20452;-44
2021/12/20 02:59:03;;;;;;;8.48;1.35;;;5.50;99.90;;;;;;5094356;28;20360;-43
2021/12/20 03:01:29;;;;;;;9.20;1.65;;;5.40;99.90;;;;;;5094230;28;20044;-43
2021/12/20 03:03:56;;;;;;;2.95;1.15;;;5.40;99.90;;;;;;5093921;28;20020;-43
2021/12/20 03:06:35;;;;;;;10.43;1.35;;;5.20;99.90;;;;;;5088898;28;20016;-43
2021/12/20 03:09:02;;;;;;;9.77;1.35;;;5.20;99.90;;;;;;5073553;28;20024;-43
2021/12/20 03:11:28;;;;;;;10.88;1.65;;;5.10;99.90;;;;;;5073730;28;20020;-43
2021/12/20 03:14:15;;;;;;;0.93;0.50;;;5.00;99.90;;;;;;5074106;28;20379;-43
2021/12/20 03:16:41;;;;;;;12.60;4.78;;;5.00;99.90;;;;;;5073516;28;20055;-43
2021/12/20 03:19:06;;;;;;;3.85;0.98;;;4.90;99.90;;;;;;5073755;28;20063;-43
2021/12/20 03:21:32;;;;;;;6.50;1.25;;;4.90;99.90;;;;;;5073825;28;20472;-44
2021/12/20 03:23:58;;;;;;;4.65;1.10;;;4.80;99.90;;;;;;5073145;28;20364;-43
2021/12/20 03:26:23;;;;;;;6.85;0.98;;;4.80;99.90;;;;;;5073830;28;20020;-43
2021/12/20 03:28:51;;;;;;;4.70;1.20;;;4.80;99.90;;;;;;5073429;28;20551;-42
2021/12/20 03:31:17;;;;;;;8.40;1.25;;;4.70;99.90;;;;;;5073128;28;20041;-43
2021/12/20 03:33:42;;;;;;;5.88;1.65;;;4.70;99.90;;;;;;5073750;28;20033;-43
2021/12/20 03:36:08;;;;;;;14.35;2.13;;;4.70;99.90;;;;;;5074331;28;20031;-43
2021/12/20 03:38:33;;;;;;;6.25;1.35;;;4.70;99.90;;;;;;5073054;28;20031;-43
2021/12/20 03:40:59;;;;;;;11.68;1.30;;;4.60;99.90;;;;;;5073359;28;20021;-43
2021/12/20 03:43:31;;;;;;;5.10;1.13;;;4.60;99.90;;;;;;5073464;28;20051;-43
2021/12/20 03:46:00;;;;;;;5.57;1.38;;;4.60;99.90;;;;;;5072858;28;20051;-44
2021/12/20 03:48:26;;;;;;;7.05;1.50;;;4.50;99.90;;;;;;5073368;28;20052;-43
2021/12/20 03:50:53;;;;;;;13.63;1.60;;;4.50;99.90;;;;;;5073306;28;20442;-43
2021/12/20 03:53:19;;;;;;;10.27;1.17;;;4.40;99.90;;;;;;5072818;28;20541;-43
2021/12/20 03:55:45;;;;;;;9.40;1.63;;;4.40;99.90;;;;;;5073367;28;20025;-43
2021/12/20 03:58:11;;;;;;;6.03;1.58;;;4.40;99.90;;;;;;5072572;28;20036;-43
2021/12/20 04:00:36;;;;;;;9.30;1.58;;;4.40;99.90;;;;;;5072986;28;20067;-43
2021/12/20 04:03:08;;;;;;;7.03;1.10;;;4.40;99.90;;;;;;5072992;28;20399;-43
2021/12/20 04:05:34;;;;;;;7.88;1.10;;;4.40;99.90;;;;;;5073275;28;20047;-43
2021/12/20 04:07:59;;;;;;;8.13;1.50;;;4.40;99.90;;;;;;5093371;28;20024;-43
2021/12/20 04:10:25;;;;;;;10.18;1.65;;;4.30;99.90;;;;;;5093339;28;20020;-43
2021/12/20 04:12:50;;;;;;;1.27;0.47;;;4.30;99.90;;;;;;5092677;28;20024;-43
2021/12/20 04:15:16;;;;;;;3.63;0.88;;;4.20;99.90;;;;;;5093258;28;20099;-43
2021/12/20 04:17:42;;;;;;;3.65;0.77;;;4.20;99.90;;;;;;5093078;28;20359;-43
2021/12/20 04:20:08;;;;;;;2.63;0.93;;;4.10;99.90;;;;;;5092623;28;20027;-43
2021/12/20 04:22:34;;;;;;;8.20;1.10;;;3.90;99.90;;;;;;5093333;28;20024;-44
2021/12/20 04:24:59;;;;;;;7.03;0.98;;;3.80;99.90;;;;;;5093131;28;20024;-44
2021/12/20 04:27:25;;;;;;;7.72;1.00;;;3.70;99.90;;;;;;5092593;28;20023;-44
2021/12/20 04:29:53;;;;;;;4.28;0.90;;;3.50;99.90;;;;;;5093157;28;20149;-43
2021/12/20 04:32:19;;;;;;;2.70;0.95;;;3.40;99.90;;;;;;5092900;28;20538;-43
2021/12/20 04:34:44;;;;;;;5.38;1.00;;;3.40;99.90;;;;;;5092472;28;20095;-43
2021/12/20 04:37:10;;;;;;;7.70;1.42;;;3.30;99.90;;;;;;5077996;28;20146;-44
2021/12/20 04:39:35;;;;;;;11.20;1.58;;;3.30;99.90;;;;;;5072823;28;20060;-43
2021/12/20 04:42:01;;;;;;;14.45;1.38;;;3.30;99.90;;;;;;5074962;28;20047;-43
2021/12/20 04:44:27;;;;;;;6.68;1.00;;;3.30;99.90;;;;;;5080898;28;20108;-43
2021/12/20 04:46:53;;;;;;;13.05;2.17;;;3.20;99.90;;;;;;5096888;28;20012;-42
2021/12/20 04:49:18;;;;;;;1.95;0.85;;;3.20;99.90;;;;;;5096522;28;20024;-44
2021/12/20 04:51:44;;;;;;;8.30;2.17;;;3.20;99.90;;;;;;5097169;28;20070;-44
2021/12/20 04:54:10;;;;;;;2.33;1.05;;;3.20;99.90;;;;;;5096857;28;20016;-43
2021/12/20 04:56:36;;;;;;;2.15;1.08;;;3.20;99.90;;;;;;5096300;28;20058;-43
2021/12/20 04:59:01;;;;;;;6.07;0.88;;;3.10;99.90;;;;;;5096682;28;20032;-43
2021/12/20 05:01:27;;;;;;;8.85;1.85;;;3.20;99.90;;;;;;5095970;28;20118;-44
2021/12/20 05:03:52;;;;;;;4.25;0.80;;;3.10;99.90;;;;;;5096604;28;20016;-43
2021/12/20 05:06:18;;;;;;;4.20;0.95;;;3.10;99.90;;;;;;5096670;28;20399;-44
2021/12/20 05:08:49;;;;;;;4.78;1.00;;;3.10;99.90;;;;;;5096292;28;20028;-43
2021/12/20 05:11:15;;;;;;;3.63;0.93;;;3.00;99.90;;;;;;5096629;28;20119;-42
2021/12/20 05:13:41;;;;;;;11.52;1.60;;;3.00;99.90;;;;;;5096730;28;20031;-42
2021/12/20 05:16:06;;;;;;;6.05;1.35;;;2.90;99.90;;;;;;5077549;28;20028;-44
2021/12/20 05:18:32;;;;;;;8.32;1.30;;;2.90;99.90;;;;;;5076287;28;20087;-42
2021/12/20 05:20:58;;;;;;;2.22;1.10;;;2.90;99.90;;;;;;5076486;28;20028;-43
2021/12/20 05:23:24;;;;;;;7.10;1.30;;;2.90;99.90;;;;;;5075582;28;20028;-43
2021/12/20 05:25:50;;;;;;;5.97;2.00;;;2.90;99.90;;;;;;5076033;28;20024;-43
2021/12/20 05:28:16;;;;;;;9.30;0.98;;;3.00;99.90;;;;;;5075961;28;20031;-43
2021/12/20 05:30:41;;;;;;;3.70;0.98;;;3.00;99.90;;;;;;5075474;28;20017;-43
2021/12/20 05:33:07;;;;;;;5.68;1.08;;;3.00;99.90;;;;;;5075837;28;20034;-43
2021/12/20 05:35:33;;;;;;;8.63;1.23;;;2.90;99.90;;;;;;5075986;28;20016;-44
2021/12/20 05:37:59;;;;;;;3.88;0.75;;;2.90;99.90;;;;;;5075244;28;20027;-43
2021/12/20 05:40:25;;;;;;;2.42;0.70;;;2.90;99.90;;;;;;5075757;28;20031;-43
2021/12/20 05:42:51;;;;;;;3.97;0.95;;;2.80;99.90;;;;;;5075761;28;20017;-43
2021/12/20 05:45:18;;;;;;;4.50;0.98;;;2.80;99.90;;;;;;5088883;28;20099;-44
2021/12/20 05:47:44;;;;;;;4.82;0.75;;;2.80;99.90;;;;;;5096111;28;20020;-43
2021/12/20 05:50:12;;;;;;;9.95;1.45;;;2.70;99.90;;;;;;5095874;28;20020;-43
2021/12/20 05:52:38;;;;;;;2.67;0.60;;;2.70;99.90;;;;;;5095362;28;20096;-43
2021/12/20 05:55:06;;;;;;;5.97;1.98;;;2.70;99.90;;;;;;5095837;28;20421;-43
2021/12/20 05:57:32;;;;;;;7.00;1.17;;;2.60;99.90;;;;;;5095755;28;20036;-43
2021/12/20 05:59:58;;;;;;;8.50;1.63;;;2.60;99.90;;;;;;5094835;28;20088;-43
2021/12/20 06:02:24;;;;;;;2.40;0.88;;;2.50;99.90;;;;;;5095750;28;20024;-43
2021/12/20 06:04:51;;;;;;;13.02;0.85;;;2.50;99.90;;;;;;5095170;28;20479;-43
2021/12/20 06:07:21;;;;;;;1.15;0.60;;;2.40;99.90;;;;;;5095524;28;20024;-43
2021/12/20 06:09:48;;;;;;;2.03;0.30;;;2.40;99.90;;;;;;5095624;28;20023;-44
2021/12/20 06:12:14;;;;;;;2.25;0.40;;;2.30;99.90;;;;;;5094645;28;20459;-43
2021/12/20 06:14:40;;;;;;;12.50;0.35;;;2.30;99.90;;;;;;5086687;28;20494;-43
2021/12/20 06:17:05;;;;;;;0.70;0.70;;;2.30;99.90;;;;;;5075108;28;20040;-43
2021/12/20 06:19:31;;;;;;;0.20;0.20;;;2.20;99.90;;;;;;5074649;28;20027;-43
2021/12/20 06:21:56;;;;;;;0.32;0.20;;;2.20;99.90;;;;;;5075137;28;20020;-42
2021/12/20 06:24:23;;;;;;;0.10;0.10;;;2.20;99.90;;;;;;5094467;28;20028;-43
2021/12/20 06:26:50;;;;;;;1.83;0.30;;;2.10;99.90;;;;;;5094636;28;20062;-43
2021/12/20 06:29:16;;;;;;;6.95;0.65;;;2.10;99.90;;;;;;5095138;28;20118;-43
2021/12/20 06:31:42;;;;;;;0.43;0.43;;;2.10;99.90;;;;;;5095160;28;20016;-43
2021/12/20 06:34:08;;;;;;;2.33;1.27;;;2.10;99.90;;;;;;5090532;28;20021;-43
2021/12/20 06:36:34;;;;;;;8.25;0.80;;;2.10;99.90;;;;;;5074568;28;20043;-43
2021/12/20 06:38:59;;;;;;;4.85;0.70;;;2.10;99.90;;;;;;5074670;28;20024;-43
2021/12/20 06:41:25;;;;;;;4.10;0.60;;;2.00;99.90;;;;;;5074059;28;20025;-44
2021/12/20 06:43:51;;;;;;;30.58;0.85;;;2.00;99.90;;;;;;5074659;28;20020;-43
2021/12/20 06:46:18;;;;;;;0.43;0.20;;;2.00;99.90;;;;;;5074570;28;20027;-43
2021/12/20 06:48:44;;;;;;;8.87;0.57;;;2.00;99.90;;;;;;5074087;28;20021;-43
2021/12/20 06:51:10;;;;;;;0.70;0.20;;;2.00;99.90;;;;;;5074486;28;20016;-43
2021/12/20 06:53:35;;;;;;;0.68;0.10;;;2.00;99.90;;;;;;5074471;28;20522;-44
2021/12/20 06:56:01;;;;;;;0.10;0.10;;;1.90;99.90;;;;;;5073736;28;20028;-43
2021/12/20 06:58:26;;;;;;;0.75;0.50;;;2.00;99.90;;;;;;5074125;28;20039;-43
2021/12/20 07:00:53;;;;;;;3.40;0.22;;;2.00;99.90;;;;;;5074015;28;20052;-44
2021/12/20 07:03:20;;;;;;;2.05;0.52;;;1.90;99.90;;;;;;5073204;28;20021;-43
2021/12/20 07:05:46;;;;;;;2.50;0.77;;;1.90;99.90;;;;;;5075008;28;20036;-42
2021/12/20 07:08:12;;;;;;;3.40;0.70;;;1.90;99.90;;;;;;5073552;28;20016;-43
2021/12/20 07:10:38;;;;;;;3.63;0.50;;;1.90;99.90;;;;;;5074034;28;20036;-43
2021/12/20 07:13:04;;;;;;;2.38;0.50;;;1.90;99.90;;;;;;5074010;28;20123;-43
2021/12/20 07:15:31;;;;;;;6.75;1.00;;;1.90;99.90;;;;;;5073616;28;20032;-43
2021/12/20 07:17:58;;;;;;;2.42;1.08;;;1.90;99.90;;;;;;5073883;28;20028;-43
2021/12/20 07:20:23;;;;;;;3.13;0.63;;;1.90;99.90;;;;;;5073897;28;20122;-44
2021/12/20 07:22:49;;;;;;;1.88;1.05;;;1.90;99.90;;;;;;5073418;28;20091;-43
2021/12/20 07:25:14;;;;;;;3.28;1.13;;;1.90;99.90;;;;;;5087135;28;20027;-43
2021/12/20 07:27:40;;;;;;;1.45;0.90;;;1.80;99.90;;;;;;5094104;28;20368;-43
2021/12/20 07:30:06;;;;;;;7.47;1.30;;;1.80;99.90;;;;;;5093311;28;20107;-43
2021/12/20 07:32:32;;;;;;;4.13;1.55;;;1.80;99.90;;;;;;5093790;28;20082;-43
2021/12/20 07:34:57;;;;;;;6.22;2.05;;;1.80;99.90;;;;;;5093857;28;20017;-44
2021/12/20 07:37:26;;;;;;;5.90;1.15;;;1.80;99.90;;;;;;5093234;28;20028;-43
2021/12/20 07:39:52;;;;;;;6.75;1.13;;;1.70;99.90;;;;;;5093691;28;20546;-43
2021/12/20 07:42:17;;;;;;;8.05;1.50;;;1.70;99.90;;;;;;5093697;28;20115;-44
2021/12/20 07:44:44;;;;;;;5.18;1.27;;;1.60;99.90;;;;;;5093263;28;20028;-43
2021/12/20 07:47:09;;;;;;;8.93;3.13;;;1.60;99.90;;;;;;5093670;28;20028;-43
2021/12/20 07:49:35;;;;;;;5.22;2.30;;;1.50;99.90;;;;;;5093696;28;20095;-43
2021/12/20 07:52:02;;;;;;;8.25;2.28;;;1.50;99.90;;;;;;5093059;28;20066;-43
2021/12/20 07:54:27;;;;;;;5.93;2.33;;;1.50;99.90;;;;;;5085360;28;20066;-43
2021/12/20 07:56:53;;;;;;;16.23;2.70;;;1.50;99.90;;;;;;5073187;28;20036;-42
2021/12/20 07:59:18;;;;;;;16.48;0.80;;;1.50;99.90;;;;;;5072695;28;20024;-43
2021/12/20 08:01:44;;;;;;;1.48;0.82;;;1.50;99.90;;;;;;5072327;28;20056;-44
2021/12/20 08:04:09;;;;;;;8.48;1.27;;;1.40;99.90;;;;;;5077291;28;20029;-43
2021/12/20 08:06:36;;;;;;;0.88;0.70;;;1.40;99.90;;;;;;5089941;28;20019;-43
2021/12/20 08:09:02;;;;;;;0.93;0.80;;;1.40;99.90;;;;;;5087937;28;20020;-44
2021/12/20 08:11:28;;;;;;;0.32;0.32;;;1.40;99.90;;;;;;5071900;28;20368;-43
2021/12/20 08:13:53;;;;;;;0.90;0.45;;;1.40;99.90;;;;;;5072497;28;20031;-43
2021/12/20 08:16:19;;;;;;;0.85;0.60;;;1.40;99.90;;;;;;5071073;28;20025;-44
2021/12/20 08:18:47;;;;;;;2.80;0.77;;;1.40;99.90;;;;;;5072010;28;20028;-42
2021/12/20 08:21:14;;;;;;;0.22;0.22;;;1.40;99.90;;;;;;5076217;28;20016;-43
2021/12/20 08:23:40;;;;;;;3.33;0.73;;;1.50;99.90;;;;;;5092373;28;20020;-43
2021/12/20 08:26:07;;;;;;;1.75;0.82;;;1.50;99.90;;;;;;5091809;28;20078;-43
2021/12/20 08:28:35;;;;;;;0.93;0.20;;;1.50;99.90;;;;;;5092564;28;20020;-43
2021/12/20 08:31:04;;;;;;;0.68;0.30;;;1.60;99.90;;;;;;5092171;28;20024;-43
2021/12/20 08:33:30;;;;;;;0.60;0.38;;;1.50;99.90;;;;;;5091751;28;20024;-43
2021/12/20 08:35:56;;;;;;;1.90;0.40;;;1.60;99.90;;;;;;5092531;28;20032;-44
2021/12/20 08:38:21;;;;;;;2.17;0.50;;;1.60;99.90;;;;;;5092095;28;20028;-44
2021/12/20 08:40:47;;;;;;;0.52;0.32;;;1.60;99.90;;;;;;5091979;28;20023;-43
2021/12/20 08:43:15;;;;;;;1.85;0.50;;;1.60;99.90;;;;;;5091994;28;20027;-44
2021/12/20 08:45:41;;;;;;;0.52;0.30;;;1.60;99.90;;;;;;5092354;28;20031;-43
2021/12/20 08:48:07;;;;;;;6.07;0.65;;;1.60;99.90;;;;;;5091630;28;20032;-42
2021/12/20 08:50:33;;;;;;;0.95;0.47;;;1.60;99.90;;;;;;5092168;28;20020;-43
2021/12/20 08:52:59;;;;;;;4.38;1.45;;;1.70;99.90;;;;;;5091908;28;20020;-44
2021/12/20 08:55:24;;;;;;;0.20;0.20;;;1.70;99.90;;;;;;5091703;28;20445;-43
2021/12/20 08:57:51;;;;;;;1.48;0.30;;;1.70;99.90;;;;;;5086853;28;20173;-43
2021/12/20 09:00:23;;;;;;;1.42;0.55;;;1.80;99.90;;;;;;5071418;28;20048;-42
2021/12/20 09:02:50;;;;;;;0.95;0.85;;;1.80;99.90;;;;;;5071574;28;20028;-43
2021/12/20 09:05:17;;;;;;;1.65;0.88;;;1.90;99.90;;;;;;5071613;28;20070;-43
2021/12/20 09:07:42;;;;;;;3.42;1.25;;;1.90;99.90;;;;;;5071454;28;20017;-44
2021/12/20 09:10:13;;;;;;;2.78;0.70;;;1.90;99.90;;;;;;5071700;28;20101;-43
2021/12/20 09:12:39;;;;;;;5.47;0.50;;;1.90;99.90;;;;;;5072011;28;20036;-43
2021/12/20 09:15:06;;;;;;;4.90;1.05;;;2.00;99.90;;;;;;5071136;28;20020;-43
2021/12/20 09:17:32;;;;;;;6.20;1.10;;;2.00;99.90;;;;;;5071610;28;20162;-43
2021/12/20 09:19:57;;;;;;;2.05;0.73;;;2.10;99.90;;;;;;5071866;28;20439;-44
2021/12/20 09:22:27;;;;;;;3.47;1.35;;;2.10;99.90;;;;;;5070776;28;20031;-43
2021/12/20 09:24:54;;;;;;;4.15;1.25;;;2.20;99.90;;;;;;5071572;28;20029;-43
2021/12/20 09:27:20;;;;;;;6.35;1.05;;;2.30;99.90;;;;;;5072663;28;20021;-43
2021/12/20 09:29:46;;;;;;;4.88;1.40;;;2.30;99.90;;;;;;5074992;28;20057;-43
2021/12/20 09:32:12;;;;;;;6.10;1.30;;;2.40;99.90;;;;;;5074996;28;20017;-43
2021/12/20 09:34:38;;;;;;;4.15;1.17;;;2.40;99.90;;;;;;5075148;28;20021;-43
2021/12/20 09:37:07;;;;;;;4.78;2.10;;;2.50;99.90;;;;;;5074179;28;20048;-43
2021/12/20 09:39:38;;;;;;;3.47;2.00;;;2.50;99.90;;;;;;5080958;28;20078;-44
2021/12/20 09:42:04;;;;;;;3.88;2.55;;;2.60;99.90;;;;;;5083644;28;20024;-43
2021/12/20 09:44:31;;;;;;;7.50;3.50;;;2.70;99.90;;;;;;5094631;28;20012;-43
2021/12/20 09:46:58;;;;;;;6.10;2.40;;;2.70;99.90;;;;;;5095517;28;20023;-43
2021/12/20 09:49:24;;;;;;;5.57;1.88;;;2.80;99.90;;;;;;5095013;28;20570;-43
2021/12/20 09:51:50;;;;;;;3.10;1.60;;;2.80;99.90;;;;;;5094725;28;20106;-43
2021/12/20 09:54:16;;;;;;;5.40;1.92;;;2.80;99.90;;;;;;5094853;28;20024;-43
2021/12/20 09:56:43;;;;;;;8.00;2.20;;;2.90;99.90;;;;;;5095099;28;20020;-44
2021/12/20 09:59:14;;;;;;;3.85;2.10;;;3.00;99.90;;;;;;5088738;28;20032;-43
2021/12/20 10:01:40;;;;;;;9.55;1.70;;;3.00;99.90;;;;;;5093205;28;20044;-43
2021/12/20 10:04:06;;;;;;;6.05;2.33;;;3.10;99.90;;;;;;5103155;28;20102;-43
2021/12/20 10:06:33;;;;;;;4.25;1.80;;;3.20;99.90;;;;;;5114862;28;20019;-44
2021/12/20 10:09:09;;;;;;;10.13;2.17;;;3.30;99.90;;;;;;5098941;28;20051;-43
2021/12/20 10:11:35;;;;;;;4.60;1.88;;;3.40;99.90;;;;;;5094119;28;20032;-43
2021/12/20 10:14:11;;;;;;;2.60;1.75;;;3.60;99.90;;;;;;5094355;28;20344;-43
2021/12/20 10:16:38;;;;;;;8.00;1.95;;;3.70;99.90;;;;;;5094623;28;20024;-43
2021/12/20 10:19:09;;;;;;;3.92;1.70;;;3.80;99.90;;;;;;5094003;28;20021;-43
2021/12/20 10:21:44;;;;;;;12.70;2.28;;;3.90;99.90;;;;;;5094503;28;20103;-43
2021/12/20 10:24:29;;;;;;;7.25;2.78;;;4.00;99.90;;;;;;5094434;28;20032;-43
2021/12/20 10:26:54;;;;;;;6.18;1.83;;;4.10;99.90;;;;;;5094193;28;20020;-44
2021/12/20 10:29:21;;;;;;;6.20;1.63;;;4.20;99.90;;;;;;5094051;28;20017;-43
2021/12/20 10:31:48;;;;;;;9.10;2.10;;;4.40;99.90;;;;;;5081081;28;20100;-44
2021/12/20 10:34:18;;;;;;;8.48;2.25;;;4.50;99.90;;;;;;5085291;28;20030;-43
2021/12/20 10:36:55;;;;;;;7.68;1.63;;;4.60;99.90;;;;;;5105184;28;20039;-44
2021/12/20 10:39:41;;;;;;;12.18;1.95;;;4.80;99.90;;;;;;5109018;28;20043;-43
2021/12/20 10:42:22;;;;;;;9.60;2.03;;;4.90;99.90;;;;;;5093802;28;20483;-43
2021/12/20 10:45:15;;;;;;;7.53;1.92;;;5.00;99.90;;;;;;5094172;28;20028;-44
2021/12/20 10:47:42;;;;;;;12.10;2.30;;;5.10;99.90;;;;;;5093702;28;20043;-43
2021/12/20 10:50:34;;;;;;;3.97;2.05;;;5.20;99.90;;;;;;5093852;28;20356;-43
2021/12/20 10:53:25;;;;;;;7.50;1.80;;;5.40;99.90;;;;;;5109603;28;20066;-44
2021/12/20 10:56:02;;;;;;;15.98;2.25;;;5.50;99.90;;;;;;5114420;28;20054;-44
2021/12/20 10:58:34;;;;;;;10.70;1.88;;;5.60;99.90;;;;;;5114112;28;20039;-43
2021/12/20 11:01:07;;;;;;;6.63;1.90;;;5.70;99.90;;;;;;5113189;28;20118;-43
2021/12/20 11:03:38;;;;;;;3.58;1.35;;;5.80;99.90;;;;;;5114090;28;20038;-43
2021/12/20 11:11:28;;;;;;;5.20;1.17;;;6.00;99.90;;;;;;5110022;28;20050;-43
2021/12/20 11:13:54;;;;;;;2.40;1.45;;;6.10;99.90;;;;;;5093037;28;20052;-43
2021/12/20 11:16:40;;;;;;;9.40;2.20;;;6.20;99.90;;;;;;5092608;28;20028;-43
2021/12/20 11:19:23;;;;;;;6.78;1.25;;;6.30;99.90;;;;;;5093582;28;20107;-43
2021/12/20 11:21:51;;;;;;;10.20;1.92;;;6.40;99.90;;;;;;5092950;28;20077;-44
2021/12/20 11:24:24;;;;;;;3.30;1.33;;;6.40;99.90;;;;;;5092619;28;20051;-44
2021/12/20 11:26:51;;;;;;;7.18;1.17;;;6.50;99.90;;;;;;5083033;28;20035;-42
2021/12/20 11:29:16;;;;;;;3.85;1.27;;;6.60;99.90;;;;;;5066194;28;20379;-45
2021/12/20 11:31:42;;;;;;;4.70;1.42;;;6.60;99.90;;;;;;5083833;28;20023;-44
2021/12/20 11:34:08;;;;;;;3.13;1.42;;;6.70;99.90;;;;;;5087704;28;20073;-44
2021/12/20 11:36:35;;;;;;;3.15;1.30;;;6.80;99.90;;;;;;5090573;28;20016;-43
2021/12/20 11:39:02;;;;;;;3.47;1.02;;;6.90;99.90;;;;;;5091597;28;20046;-43
2021/12/20 11:41:30;;;;;;;2.53;1.08;;;7.00;99.90;;;;;;5084634;28;20589;-44
2021/12/20 11:43:57;;;;;;;5.70;0.90;;;7.00;99.90;;;;;;5089961;28;20112;-44
2021/12/20 11:46:29;;;;;;;4.78;1.95;;;7.10;99.90;;;;;;5090399;28;20016;-43
2021/12/20 11:48:57;;;;;;;6.03;1.08;;;7.10;99.90;;;;;;5098516;28;20043;-44
2021/12/20 11:51:23;;;;;;;3.07;0.80;;;7.20;99.90;;;;;;5091445;28;20020;-43
2021/12/20 11:53:48;;;;;;;4.45;1.58;;;7.20;99.90;;;;;;5091714;28;20363;-42
2021/12/20 11:56:14;;;;;;;3.45;0.98;;;7.30;99.90;;;;;;5091833;28;20455;-44
2021/12/20 11:58:47;;;;;;;4.97;1.15;;;7.30;99.90;;;;;;5091613;28;20089;-45
2021/12/20 12:01:18;;;;;;;5.45;1.13;;;7.40;99.90;;;;;;5081418;28;20040;-43
2021/12/20 12:03:58;;;;;;;2.78;0.80;;;7.40;99.90;;;;;;5071312;28;20029;-44
2021/12/20 12:06:30;;;;;;;3.58;0.80;;;7.60;99.90;;;;;;5071628;28;20414;-42
2021/12/20 12:09:00;;;;;;;7.75;1.02;;;7.60;99.90;;;;;;5072110;28;20032;-43
2021/12/20 12:11:25;;;;;;;5.82;1.27;;;7.60;99.90;;;;;;5072009;28;20023;-42
2021/12/20 12:14:01;;;;;;;2.33;0.93;;;7.70;99.90;;;;;;5088555;28;20367;-43
2021/12/20 12:17:05;;;;;;;3.10;1.00;;;7.70;99.90;;;;;;5087037;28;20042;-44
2021/12/20 12:19:45;;;;;;;3.28;0.98;;;7.80;99.90;;;;;;5105131;28;20019;-44
2021/12/20 12:22:33;;;;;;;1.95;0.70;;;7.90;99.90;;;;;;5106446;28;20016;-45
2021/12/20 12:24:59;;;;;;;2.08;1.17;;;7.90;99.90;;;;;;5097883;28;20035;-44
2021/12/20 12:27:26;;;;;;;2.28;0.80;;;7.90;99.90;;;;;;5091521;28;20025;-45
2021/12/20 12:30:11;;;;;;;1.63;0.40;;;7.90;99.90;;;;;;5091472;28;20107;-43
2021/12/20 12:32:37;;;;;;;2.03;0.40;;;8.00;99.90;;;;;;5090197;28;20445;-44
2021/12/20 12:35:03;;;;;;;1.00;0.50;;;8.00;99.90;;;;;;5090996;28;20131;-44
2021/12/20 12:37:33;;;;;;;2.05;0.57;;;8.10;99.90;;;;;;5091618;28;20111;-45
2021/12/20 12:40:25;;;;;;;4.78;0.73;;;8.10;99.90;;;;;;5091055;28;20340;-48
2021/12/20 12:42:55;;;;;;;3.65;0.80;;;8.10;99.90;;;;;;5091011;28;20902;-44
2021/12/20 12:45:51;;;;;;;3.65;0.88;;;8.10;99.90;;;;;;5090724;28;20024;-45
2021/12/20 12:48:52;;;;;;;6.25;0.90;;;8.20;99.90;;;;;;5076385;28;20064;-44
2021/12/20 12:51:20;;;;;;;0.75;0.30;;;8.20;99.90;;;;;;5083885;28;20074;-43
2021/12/20 12:53:52;;;;;;;3.80;0.68;;;8.20;99.90;;;;;;5090690;28;20497;-43
2021/12/20 12:56:24;;;;;;;2.75;0.60;;;8.20;99.90;;;;;;5091088;28;20039;-44
2021/12/20 12:59:19;;;;;;;4.70;0.60;;;8.30;99.90;;;;;;5087664;28;20040;-44
2021/12/20 13:01:57;;;;;;;1.40;0.60;;;8.30;99.90;;;;;;5073642;28;20378;-44
2021/12/20 13:04:45;;;;;;;4.60;0.85;;;8.40;99.90;;;;;;5095019;28;20020;-44
2021/12/20 13:07:11;;;;;;;3.30;0.80;;;8.40;99.90;;;;;;5092600;28;20020;-45
2021/12/20 13:09:44;;;;;;;1.48;0.60;;;8.40;99.90;;;;;;5093501;28;20043;-43
2021/12/20 13:12:12;;;;;;;1.17;0.50;;;8.40;99.90;;;;;;5090083;28;20370;-43
2021/12/20 13:14:56;;;;;;;1.25;0.50;;;8.40;99.70;;;;;;5083041;28;20028;-43
2021/12/20 13:17:34;;;;;;;4.50;0.50;;;8.50;99.10;;;;;;5082731;28;20051;-44
2021/12/20 13:22:59;;;;;;;1.67;0.75;;;8.50;94.10;;;;;;5092430;28;20579;-44
2021/12/20 13:25:54;;;;;;;1.55;0.40;;;8.50;99.40;;;;;;5095323;28;20019;-45